sensor_id;sensor_type;location;lat;lon;timestamp;P1;durP1;ratioP1;P2;durP2;ratioP2
25069;SDS011;13064;48.162;11.536;2023-04-26T00:01:16;11.63;;;7.40;;
25069;SDS011;13064;48.162;11.536;2023-04-26T00:03:44;14.52;;;8.30;;
25069;SDS011;13064;48.162;11.536;2023-04-26T00:06:12;15.68;;;9.18;;
25069;SDS011;13064;48.162;11.536;2023-04-26T00:08:40;15.65;;;8.60;;
25069;SDS011;13064;48.162;11.536;2023-04-26T00:11:08;13.30;;;8.43;;
25069;SDS011;13064;48.162;11.536;2023-04-26T00:13:36;15.25;;;8.98;;
25069;SDS011;13064;48.162;11.536;2023-04-26T00:16:04;14.55;;;8.25;;
25069;SDS011;13064;48.162;11.536;2023-04-26T00:18:32;14.00;;;8.07;;
25069;SDS011;13064;48.162;11.536;2023-04-26T00:20:59;14.18;;;9.20;;
25069;SDS011;13064;48.162;11.536;2023-04-26T00:23:27;14.52;;;8.57;;
25069;SDS011;13064;48.162;11.536;2023-04-26T00:25:55;17.15;;;8.77;;
25069;SDS011;13064;48.162;11.536;2023-04-26T00:28:23;14.88;;;9.02;;
25069;SDS011;13064;48.162;11.536;2023-04-26T00:30:51;14.07;;;8.93;;
25069;SDS011;13064;48.162;11.536;2023-04-26T00:33:18;13.23;;;8.35;;
25069;SDS011;13064;48.162;11.536;2023-04-26T00:35:46;12.65;;;8.20;;
25069;SDS011;13064;48.162;11.536;2023-04-26T00:38:13;13.52;;;8.38;;
25069;SDS011;13064;48.162;11.536;2023-04-26T00:40:41;12.57;;;8.00;;
25069;SDS011;13064;48.162;11.536;2023-04-26T00:43:09;15.60;;;9.13;;
25069;SDS011;13064;48.162;11.536;2023-04-26T00:45:37;12.15;;;7.88;;
25069;SDS011;13064;48.162;11.536;2023-04-26T00:48:05;12.95;;;8.63;;
25069;SDS011;13064;48.162;11.536;2023-04-26T00:50:33;15.18;;;7.97;;
25069;SDS011;13064;48.162;11.536;2023-04-26T00:53:00;14.35;;;9.07;;
25069;SDS011;13064;48.162;11.536;2023-04-26T00:55:29;13.10;;;8.05;;
25069;SDS011;13064;48.162;11.536;2023-04-26T00:57:57;12.52;;;7.82;;
25069;SDS011;13064;48.162;11.536;2023-04-26T01:00:25;14.55;;;8.32;;
25069;SDS011;13064;48.162;11.536;2023-04-26T01:02:53;12.95;;;7.30;;
25069;SDS011;13064;48.162;11.536;2023-04-26T01:05:20;12.95;;;7.32;;
25069;SDS011;13064;48.162;11.536;2023-04-26T01:07:48;13.35;;;8.38;;
25069;SDS011;13064;48.162;11.536;2023-04-26T01:10:16;13.60;;;7.95;;
25069;SDS011;13064;48.162;11.536;2023-04-26T01:12:44;14.73;;;7.82;;
25069;SDS011;13064;48.162;11.536;2023-04-26T01:15:16;12.80;;;7.68;;
25069;SDS011;13064;48.162;11.536;2023-04-26T01:17:47;14.25;;;8.00;;
25069;SDS011;13064;48.162;11.536;2023-04-26T01:20:15;13.35;;;7.50;;
25069;SDS011;13064;48.162;11.536;2023-04-26T01:22:42;11.38;;;7.00;;
25069;SDS011;13064;48.162;11.536;2023-04-26T01:25:11;11.18;;;7.32;;
25069;SDS011;13064;48.162;11.536;2023-04-26T01:27:38;11.57;;;6.82;;
25069;SDS011;13064;48.162;11.536;2023-04-26T01:30:07;10.95;;;6.43;;
25069;SDS011;13064;48.162;11.536;2023-04-26T01:32:35;10.75;;;6.82;;
25069;SDS011;13064;48.162;11.536;2023-04-26T01:35:02;11.25;;;6.50;;
25069;SDS011;13064;48.162;11.536;2023-04-26T01:37:31;10.98;;;5.93;;
25069;SDS011;13064;48.162;11.536;2023-04-26T01:39:58;9.10;;;5.82;;
25069;SDS011;13064;48.162;11.536;2023-04-26T01:42:26;10.38;;;6.20;;
25069;SDS011;13064;48.162;11.536;2023-04-26T01:44:54;8.75;;;6.10;;
25069;SDS011;13064;48.162;11.536;2023-04-26T01:47:21;10.82;;;6.50;;
25069;SDS011;13064;48.162;11.536;2023-04-26T01:49:50;12.27;;;6.43;;
25069;SDS011;13064;48.162;11.536;2023-04-26T01:52:19;11.38;;;7.15;;
25069;SDS011;13064;48.162;11.536;2023-04-26T01:54:47;13.88;;;7.65;;
25069;SDS011;13064;48.162;11.536;2023-04-26T01:57:14;10.80;;;6.97;;
25069;SDS011;13064;48.162;11.536;2023-04-26T01:59:43;11.52;;;7.32;;
25069;SDS011;13064;48.162;11.536;2023-04-26T02:02:11;12.38;;;7.28;;
25069;SDS011;13064;48.162;11.536;2023-04-26T02:04:39;12.27;;;7.22;;
25069;SDS011;13064;48.162;11.536;2023-04-26T02:07:06;12.93;;;6.88;;
25069;SDS011;13064;48.162;11.536;2023-04-26T02:09:44;11.18;;;6.53;;
25069;SDS011;13064;48.162;11.536;2023-04-26T02:12:12;10.75;;;7.00;;
25069;SDS011;13064;48.162;11.536;2023-04-26T02:14:39;12.02;;;6.30;;
25069;SDS011;13064;48.162;11.536;2023-04-26T02:17:08;11.35;;;6.45;;
25069;SDS011;13064;48.162;11.536;2023-04-26T02:19:36;10.48;;;6.53;;
25069;SDS011;13064;48.162;11.536;2023-04-26T02:22:04;11.50;;;6.45;;
25069;SDS011;13064;48.162;11.536;2023-04-26T02:24:32;8.88;;;5.40;;
25069;SDS011;13064;48.162;11.536;2023-04-26T02:27:01;9.10;;;6.35;;
25069;SDS011;13064;48.162;11.536;2023-04-26T02:29:30;9.18;;;5.55;;
25069;SDS011;13064;48.162;11.536;2023-04-26T02:32:11;8.63;;;5.80;;
25069;SDS011;13064;48.162;11.536;2023-04-26T02:34:38;8.07;;;5.53;;
25069;SDS011;13064;48.162;11.536;2023-04-26T02:37:06;8.38;;;5.72;;
25069;SDS011;13064;48.162;11.536;2023-04-26T02:39:34;8.27;;;5.40;;
25069;SDS011;13064;48.162;11.536;2023-04-26T02:42:02;8.23;;;5.22;;
25069;SDS011;13064;48.162;11.536;2023-04-26T02:44:30;7.63;;;5.07;;
25069;SDS011;13064;48.162;11.536;2023-04-26T02:46:57;10.07;;;5.57;;
25069;SDS011;13064;48.162;11.536;2023-04-26T02:49:26;6.57;;;4.95;;
25069;SDS011;13064;48.162;11.536;2023-04-26T02:51:53;7.90;;;5.05;;
25069;SDS011;13064;48.162;11.536;2023-04-26T02:54:22;8.80;;;5.63;;
25069;SDS011;13064;48.162;11.536;2023-04-26T02:56:50;8.68;;;5.68;;
25069;SDS011;13064;48.162;11.536;2023-04-26T02:59:20;10.18;;;5.35;;
25069;SDS011;13064;48.162;11.536;2023-04-26T03:01:47;6.10;;;4.85;;
25069;SDS011;13064;48.162;11.536;2023-04-26T03:04:15;8.88;;;5.63;;
25069;SDS011;13064;48.162;11.536;2023-04-26T03:06:43;8.95;;;5.05;;
25069;SDS011;13064;48.162;11.536;2023-04-26T03:09:11;6.30;;;4.80;;
25069;SDS011;13064;48.162;11.536;2023-04-26T03:11:39;8.48;;;5.35;;
25069;SDS011;13064;48.162;11.536;2023-04-26T03:14:07;10.30;;;5.50;;
25069;SDS011;13064;48.162;11.536;2023-04-26T03:16:41;9.55;;;5.57;;
25069;SDS011;13064;48.162;11.536;2023-04-26T03:19:09;9.93;;;5.22;;
25069;SDS011;13064;48.162;11.536;2023-04-26T03:21:38;9.82;;;5.72;;
25069;SDS011;13064;48.162;11.536;2023-04-26T03:24:05;9.02;;;5.55;;
25069;SDS011;13064;48.162;11.536;2023-04-26T03:26:33;8.60;;;5.68;;
25069;SDS011;13064;48.162;11.536;2023-04-26T03:29:01;10.02;;;5.68;;
25069;SDS011;13064;48.162;11.536;2023-04-26T03:31:29;11.35;;;6.35;;
25069;SDS011;13064;48.162;11.536;2023-04-26T03:33:57;9.35;;;5.93;;
25069;SDS011;13064;48.162;11.536;2023-04-26T03:36:25;9.52;;;5.75;;
25069;SDS011;13064;48.162;11.536;2023-04-26T03:38:54;10.68;;;5.82;;
25069;SDS011;13064;48.162;11.536;2023-04-26T03:41:22;9.75;;;6.38;;
25069;SDS011;13064;48.162;11.536;2023-04-26T03:43:50;7.50;;;5.72;;
25069;SDS011;13064;48.162;11.536;2023-04-26T03:46:17;9.68;;;6.40;;
25069;SDS011;13064;48.162;11.536;2023-04-26T03:48:46;11.15;;;5.95;;
25069;SDS011;13064;48.162;11.536;2023-04-26T03:51:15;10.18;;;6.10;;
25069;SDS011;13064;48.162;11.536;2023-04-26T03:53:42;10.77;;;6.03;;
25069;SDS011;13064;48.162;11.536;2023-04-26T03:56:12;12.48;;;6.18;;
25069;SDS011;13064;48.162;11.536;2023-04-26T03:58:40;9.95;;;6.22;;
25069;SDS011;13064;48.162;11.536;2023-04-26T04:01:07;9.18;;;6.13;;
25069;SDS011;13064;48.162;11.536;2023-04-26T04:03:35;10.95;;;5.95;;
25069;SDS011;13064;48.162;11.536;2023-04-26T04:06:06;9.82;;;5.60;;
25069;SDS011;13064;48.162;11.536;2023-04-26T04:08:34;8.50;;;5.63;;
25069;SDS011;13064;48.162;11.536;2023-04-26T04:11:01;9.90;;;6.38;;
25069;SDS011;13064;48.162;11.536;2023-04-26T04:13:30;11.18;;;6.53;;
25069;SDS011;13064;48.162;11.536;2023-04-26T04:15:57;12.77;;;5.90;;
25069;SDS011;13064;48.162;11.536;2023-04-26T04:18:25;8.23;;;5.95;;
25069;SDS011;13064;48.162;11.536;2023-04-26T04:20:53;11.25;;;6.10;;
25069;SDS011;13064;48.162;11.536;2023-04-26T04:23:21;10.40;;;6.25;;
25069;SDS011;13064;48.162;11.536;2023-04-26T04:25:48;10.45;;;6.65;;
25069;SDS011;13064;48.162;11.536;2023-04-26T04:28:17;12.77;;;6.30;;
25069;SDS011;13064;48.162;11.536;2023-04-26T04:30:44;10.65;;;6.07;;
25069;SDS011;13064;48.162;11.536;2023-04-26T04:33:12;9.57;;;6.47;;
25069;SDS011;13064;48.162;11.536;2023-04-26T04:35:40;51.20;;;9.27;;
25069;SDS011;13064;48.162;11.536;2023-04-26T04:38:08;11.65;;;6.80;;
25069;SDS011;13064;48.162;11.536;2023-04-26T04:40:36;11.63;;;5.93;;
25069;SDS011;13064;48.162;11.536;2023-04-26T04:43:04;9.50;;;6.20;;
25069;SDS011;13064;48.162;11.536;2023-04-26T04:45:31;11.48;;;6.60;;
25069;SDS011;13064;48.162;11.536;2023-04-26T04:48:00;11.82;;;6.40;;
25069;SDS011;13064;48.162;11.536;2023-04-26T04:50:31;11.63;;;6.18;;
25069;SDS011;13064;48.162;11.536;2023-04-26T04:52:59;13.75;;;6.80;;
25069;SDS011;13064;48.162;11.536;2023-04-26T04:55:27;13.30;;;6.93;;
25069;SDS011;13064;48.162;11.536;2023-04-26T04:57:55;14.02;;;7.22;;
25069;SDS011;13064;48.162;11.536;2023-04-26T05:00:23;13.02;;;6.70;;
25069;SDS011;13064;48.162;11.536;2023-04-26T05:02:58;9.50;;;6.38;;
25069;SDS011;13064;48.162;11.536;2023-04-26T05:05:26;14.30;;;7.40;;
25069;SDS011;13064;48.162;11.536;2023-04-26T05:07:54;11.13;;;7.13;;
25069;SDS011;13064;48.162;11.536;2023-04-26T05:10:21;13.82;;;7.72;;
25069;SDS011;13064;48.162;11.536;2023-04-26T05:12:49;13.63;;;7.18;;
25069;SDS011;13064;48.162;11.536;2023-04-26T05:15:17;12.27;;;7.45;;
25069;SDS011;13064;48.162;11.536;2023-04-26T05:17:45;12.55;;;7.65;;
25069;SDS011;13064;48.162;11.536;2023-04-26T05:20:18;13.23;;;7.20;;
25069;SDS011;13064;48.162;11.536;2023-04-26T05:22:46;12.88;;;8.02;;
25069;SDS011;13064;48.162;11.536;2023-04-26T05:25:13;15.40;;;8.15;;
25069;SDS011;13064;48.162;11.536;2023-04-26T05:27:46;13.43;;;7.55;;
25069;SDS011;13064;48.162;11.536;2023-04-26T05:30:35;12.07;;;7.43;;
25069;SDS011;13064;48.162;11.536;2023-04-26T05:33:19;12.27;;;7.32;;
25069;SDS011;13064;48.162;11.536;2023-04-26T05:35:53;12.10;;;7.50;;
25069;SDS011;13064;48.162;11.536;2023-04-26T05:38:20;13.98;;;7.63;;
25069;SDS011;13064;48.162;11.536;2023-04-26T05:40:48;13.52;;;7.60;;
25069;SDS011;13064;48.162;11.536;2023-04-26T05:43:16;16.50;;;8.32;;
25069;SDS011;13064;48.162;11.536;2023-04-26T05:45:51;16.27;;;8.13;;
25069;SDS011;13064;48.162;11.536;2023-04-26T05:48:19;13.65;;;7.50;;
25069;SDS011;13064;48.162;11.536;2023-04-26T05:50:48;13.80;;;8.07;;
25069;SDS011;13064;48.162;11.536;2023-04-26T05:53:16;14.05;;;8.27;;
25069;SDS011;13064;48.162;11.536;2023-04-26T05:55:44;13.90;;;8.27;;
25069;SDS011;13064;48.162;11.536;2023-04-26T05:58:12;14.40;;;7.85;;
25069;SDS011;13064;48.162;11.536;2023-04-26T06:00:40;11.20;;;7.68;;
25069;SDS011;13064;48.162;11.536;2023-04-26T06:03:08;11.88;;;7.22;;
25069;SDS011;13064;48.162;11.536;2023-04-26T06:05:36;12.88;;;7.80;;
25069;SDS011;13064;48.162;11.536;2023-04-26T06:08:04;12.07;;;7.47;;
25069;SDS011;13064;48.162;11.536;2023-04-26T06:10:34;12.00;;;6.95;;
25069;SDS011;13064;48.162;11.536;2023-04-26T06:13:03;11.55;;;7.43;;
25069;SDS011;13064;48.162;11.536;2023-04-26T06:15:34;11.47;;;7.37;;
25069;SDS011;13064;48.162;11.536;2023-04-26T06:18:02;11.50;;;7.13;;
25069;SDS011;13064;48.162;11.536;2023-04-26T06:20:30;14.95;;;8.00;;
25069;SDS011;13064;48.162;11.536;2023-04-26T06:22:58;12.40;;;7.28;;
25069;SDS011;13064;48.162;11.536;2023-04-26T06:25:26;15.35;;;7.53;;
25069;SDS011;13064;48.162;11.536;2023-04-26T06:27:53;11.75;;;7.38;;
25069;SDS011;13064;48.162;11.536;2023-04-26T06:30:22;14.32;;;8.32;;
25069;SDS011;13064;48.162;11.536;2023-04-26T06:32:51;13.63;;;7.88;;
25069;SDS011;13064;48.162;11.536;2023-04-26T06:35:18;10.35;;;6.35;;
25069;SDS011;13064;48.162;11.536;2023-04-26T06:37:46;12.38;;;7.22;;
25069;SDS011;13064;48.162;11.536;2023-04-26T06:40:14;12.95;;;7.22;;
25069;SDS011;13064;48.162;11.536;2023-04-26T06:42:42;17.30;;;7.85;;
25069;SDS011;13064;48.162;11.536;2023-04-26T06:45:24;11.55;;;6.95;;
25069;SDS011;13064;48.162;11.536;2023-04-26T06:47:55;12.43;;;6.80;;
25069;SDS011;13064;48.162;11.536;2023-04-26T06:50:24;10.95;;;6.32;;
25069;SDS011;13064;48.162;11.536;2023-04-26T06:52:53;11.13;;;6.47;;
25069;SDS011;13064;48.162;11.536;2023-04-26T06:55:20;11.68;;;6.90;;
25069;SDS011;13064;48.162;11.536;2023-04-26T06:57:48;12.70;;;7.03;;
25069;SDS011;13064;48.162;11.536;2023-04-26T07:00:16;13.20;;;7.10;;
25069;SDS011;13064;48.162;11.536;2023-04-26T07:02:44;13.20;;;6.82;;
25069;SDS011;13064;48.162;11.536;2023-04-26T07:05:12;10.55;;;6.65;;
25069;SDS011;13064;48.162;11.536;2023-04-26T07:07:41;11.93;;;7.40;;
25069;SDS011;13064;48.162;11.536;2023-04-26T07:10:08;16.92;;;7.28;;
25069;SDS011;13064;48.162;11.536;2023-04-26T07:12:36;16.23;;;7.70;;
25069;SDS011;13064;48.162;11.536;2023-04-26T07:15:04;9.95;;;6.80;;
25069;SDS011;13064;48.162;11.536;2023-04-26T07:17:32;11.50;;;6.72;;
25069;SDS011;13064;48.162;11.536;2023-04-26T07:20:00;12.23;;;6.78;;
25069;SDS011;13064;48.162;11.536;2023-04-26T07:22:27;13.73;;;6.95;;
25069;SDS011;13064;48.162;11.536;2023-04-26T07:24:55;11.65;;;6.88;;
25069;SDS011;13064;48.162;11.536;2023-04-26T07:27:23;15.10;;;7.63;;
25069;SDS011;13064;48.162;11.536;2023-04-26T07:29:54;10.25;;;7.10;;
25069;SDS011;13064;48.162;11.536;2023-04-26T07:32:21;14.13;;;8.25;;
25069;SDS011;13064;48.162;11.536;2023-04-26T07:34:49;10.93;;;7.20;;
25069;SDS011;13064;48.162;11.536;2023-04-26T07:37:17;13.00;;;7.00;;
25069;SDS011;13064;48.162;11.536;2023-04-26T07:39:44;10.95;;;6.82;;
25069;SDS011;13064;48.162;11.536;2023-04-26T07:42:12;15.20;;;6.90;;
25069;SDS011;13064;48.162;11.536;2023-04-26T07:44:40;13.93;;;6.97;;
25069;SDS011;13064;48.162;11.536;2023-04-26T07:47:11;10.98;;;6.32;;
25069;SDS011;13064;48.162;11.536;2023-04-26T07:49:39;9.80;;;6.65;;
25069;SDS011;13064;48.162;11.536;2023-04-26T07:52:07;12.13;;;6.47;;
25069;SDS011;13064;48.162;11.536;2023-04-26T07:54:35;10.93;;;5.88;;
25069;SDS011;13064;48.162;11.536;2023-04-26T07:57:02;11.15;;;5.72;;
25069;SDS011;13064;48.162;11.536;2023-04-26T07:59:30;12.23;;;6.13;;
25069;SDS011;13064;48.162;11.536;2023-04-26T08:01:57;11.07;;;5.43;;
25069;SDS011;13064;48.162;11.536;2023-04-26T08:04:29;10.98;;;5.88;;
25069;SDS011;13064;48.162;11.536;2023-04-26T08:07:00;9.50;;;5.13;;
25069;SDS011;13064;48.162;11.536;2023-04-26T08:09:28;9.15;;;5.28;;
25069;SDS011;13064;48.162;11.536;2023-04-26T08:11:56;11.50;;;5.65;;
25069;SDS011;13064;48.162;11.536;2023-04-26T08:14:24;10.48;;;6.55;;
25069;SDS011;13064;48.162;11.536;2023-04-26T08:16:52;9.13;;;5.72;;
25069;SDS011;13064;48.162;11.536;2023-04-26T08:19:19;11.65;;;6.25;;
25069;SDS011;13064;48.162;11.536;2023-04-26T08:21:47;9.82;;;6.05;;
25069;SDS011;13064;48.162;11.536;2023-04-26T08:24:15;11.98;;;5.78;;
25069;SDS011;13064;48.162;11.536;2023-04-26T08:26:42;11.43;;;5.55;;
25069;SDS011;13064;48.162;11.536;2023-04-26T08:29:10;10.80;;;5.60;;
25069;SDS011;13064;48.162;11.536;2023-04-26T08:31:38;9.30;;;5.88;;
25069;SDS011;13064;48.162;11.536;2023-04-26T08:34:05;9.93;;;6.00;;
25069;SDS011;13064;48.162;11.536;2023-04-26T08:36:36;8.73;;;4.85;;
25069;SDS011;13064;48.162;11.536;2023-04-26T08:39:04;8.85;;;5.22;;
25069;SDS011;13064;48.162;11.536;2023-04-26T08:41:34;8.90;;;4.53;;
25069;SDS011;13064;48.162;11.536;2023-04-26T08:44:05;8.07;;;4.35;;
25069;SDS011;13064;48.162;11.536;2023-04-26T08:46:35;8.55;;;4.40;;
25069;SDS011;13064;48.162;11.536;2023-04-26T08:49:53;11.38;;;4.32;;
25069;SDS011;13064;48.162;11.536;2023-04-26T08:51:55;11.32;;;4.45;;
25069;SDS011;13064;48.162;11.536;2023-04-26T08:54:24;6.72;;;4.43;;
25069;SDS011;13064;48.162;11.536;2023-04-26T08:56:52;8.95;;;4.57;;
25069;SDS011;13064;48.162;11.536;2023-04-26T08:59:21;9.32;;;4.60;;
25069;SDS011;13064;48.162;11.536;2023-04-26T09:01:49;7.45;;;4.38;;
25069;SDS011;13064;48.162;11.536;2023-04-26T09:04:17;7.85;;;4.90;;
25069;SDS011;13064;48.162;11.536;2023-04-26T09:06:45;10.88;;;5.28;;
25069;SDS011;13064;48.162;11.536;2023-04-26T09:09:13;7.38;;;4.55;;
25069;SDS011;13064;48.162;11.536;2023-04-26T09:11:55;7.07;;;4.03;;
25069;SDS011;13064;48.162;11.536;2023-04-26T09:14:23;11.00;;;5.03;;
25069;SDS011;13064;48.162;11.536;2023-04-26T09:16:51;7.07;;;4.97;;
25069;SDS011;13064;48.162;11.536;2023-04-26T09:22:03;10.10;;;5.05;;
25069;SDS011;13064;48.162;11.536;2023-04-26T09:24:48;5.93;;;3.67;;
25069;SDS011;13064;48.162;11.536;2023-04-26T09:27:16;11.73;;;4.05;;
25069;SDS011;13064;48.162;11.536;2023-04-26T09:29:57;8.95;;;4.13;;
25069;SDS011;13064;48.162;11.536;2023-04-26T09:32:25;9.35;;;3.78;;
25069;SDS011;13064;48.162;11.536;2023-04-26T09:34:54;12.32;;;4.45;;
25069;SDS011;13064;48.162;11.536;2023-04-26T09:37:22;7.20;;;3.75;;
25069;SDS011;13064;48.162;11.536;2023-04-26T09:39:49;9.60;;;3.40;;
25069;SDS011;13064;48.162;11.536;2023-04-26T09:42:17;12.20;;;3.13;;
25069;SDS011;13064;48.162;11.536;2023-04-26T09:44:45;9.98;;;4.05;;
25069;SDS011;13064;48.162;11.536;2023-04-26T09:47:12;7.60;;;4.00;;
25069;SDS011;13064;48.162;11.536;2023-04-26T09:49:47;7.55;;;3.65;;
25069;SDS011;13064;48.162;11.536;2023-04-26T09:52:16;8.68;;;3.70;;
25069;SDS011;13064;48.162;11.536;2023-04-26T09:54:45;8.60;;;3.58;;
25069;SDS011;13064;48.162;11.536;2023-04-26T09:57:14;5.93;;;3.50;;
25069;SDS011;13064;48.162;11.536;2023-04-26T09:59:43;7.43;;;3.95;;
25069;SDS011;13064;48.162;11.536;2023-04-26T10:02:17;7.75;;;3.90;;
25069;SDS011;13064;48.162;11.536;2023-04-26T10:04:46;6.57;;;3.33;;
25069;SDS011;13064;48.162;11.536;2023-04-26T10:09:45;6.47;;;2.35;;
25069;SDS011;13064;48.162;11.536;2023-04-26T10:12:14;5.93;;;2.67;;
25069;SDS011;13064;48.162;11.536;2023-04-26T10:14:42;4.68;;;2.70;;
25069;SDS011;13064;48.162;11.536;2023-04-26T10:17:12;6.03;;;2.92;;
25069;SDS011;13064;48.162;11.536;2023-04-26T10:19:40;6.57;;;3.22;;
25069;SDS011;13064;48.162;11.536;2023-04-26T10:22:15;8.57;;;3.22;;
25069;SDS011;13064;48.162;11.536;2023-04-26T10:24:43;8.57;;;3.17;;
25069;SDS011;13064;48.162;11.536;2023-04-26T10:27:11;6.22;;;2.85;;
25069;SDS011;13064;48.162;11.536;2023-04-26T10:32:25;4.40;;;2.65;;
25069;SDS011;13064;48.162;11.536;2023-04-26T10:35:26;6.22;;;2.78;;
25069;SDS011;13064;48.162;11.536;2023-04-26T10:40:30;7.13;;;3.03;;
25069;SDS011;13064;48.162;11.536;2023-04-26T10:45:39;7.30;;;3.15;;
25069;SDS011;13064;48.162;11.536;2023-04-26T10:53:31;5.35;;;2.60;;
25069;SDS011;13064;48.162;11.536;2023-04-26T10:55:59;4.65;;;2.10;;
25069;SDS011;13064;48.162;11.536;2023-04-26T10:58:27;3.97;;;1.95;;
25069;SDS011;13064;48.162;11.536;2023-04-26T11:01:07;3.85;;;1.73;;
25069;SDS011;13064;48.162;11.536;2023-04-26T11:03:37;3.42;;;1.50;;
25069;SDS011;13064;48.162;11.536;2023-04-26T11:06:14;2.92;;;1.50;;
25069;SDS011;13064;48.162;11.536;2023-04-26T11:08:41;4.65;;;2.10;;
25069;SDS011;13064;48.162;11.536;2023-04-26T11:11:10;7.53;;;2.47;;
25069;SDS011;13064;48.162;11.536;2023-04-26T11:13:39;5.28;;;2.50;;
25069;SDS011;13064;48.162;11.536;2023-04-26T11:16:11;6.05;;;2.35;;
25069;SDS011;13064;48.162;11.536;2023-04-26T11:18:41;3.75;;;2.60;;
25069;SDS011;13064;48.162;11.536;2023-04-26T11:21:09;4.78;;;2.67;;
25069;SDS011;13064;48.162;11.536;2023-04-26T11:23:38;5.97;;;2.65;;
25069;SDS011;13064;48.162;11.536;2023-04-26T11:26:06;7.05;;;3.13;;
25069;SDS011;13064;48.162;11.536;2023-04-26T11:28:36;6.40;;;2.63;;
25069;SDS011;13064;48.162;11.536;2023-04-26T11:31:04;5.47;;;2.65;;
25069;SDS011;13064;48.162;11.536;2023-04-26T11:33:32;5.43;;;3.00;;
25069;SDS011;13064;48.162;11.536;2023-04-26T11:36:00;7.38;;;2.80;;
25069;SDS011;13064;48.162;11.536;2023-04-26T11:38:28;5.82;;;2.35;;
25069;SDS011;13064;48.162;11.536;2023-04-26T11:43:36;5.72;;;2.47;;
25069;SDS011;13064;48.162;11.536;2023-04-26T11:46:05;7.03;;;2.50;;
25069;SDS011;13064;48.162;11.536;2023-04-26T11:48:33;5.20;;;2.20;;
25069;SDS011;13064;48.162;11.536;2023-04-26T11:51:02;6.75;;;2.63;;
25069;SDS011;13064;48.162;11.536;2023-04-26T11:53:39;9.27;;;2.13;;
25069;SDS011;13064;48.162;11.536;2023-04-26T11:56:18;2.58;;;1.90;;
25069;SDS011;13064;48.162;11.536;2023-04-26T11:58:46;3.95;;;2.00;;
25069;SDS011;13064;48.162;11.536;2023-04-26T12:01:21;4.50;;;2.20;;
25069;SDS011;13064;48.162;11.536;2023-04-26T12:03:50;4.57;;;1.85;;
25069;SDS011;13064;48.162;11.536;2023-04-26T12:06:18;4.72;;;1.90;;
25069;SDS011;13064;48.162;11.536;2023-04-26T12:08:50;3.65;;;1.95;;
25069;SDS011;13064;48.162;11.536;2023-04-26T12:11:18;6.27;;;2.40;;
25069;SDS011;13064;48.162;11.536;2023-04-26T12:13:45;6.10;;;2.65;;
25069;SDS011;13064;48.162;11.536;2023-04-26T12:16:13;5.05;;;2.58;;
25069;SDS011;13064;48.162;11.536;2023-04-26T12:18:52;5.00;;;2.72;;
25069;SDS011;13064;48.162;11.536;2023-04-26T12:21:20;3.85;;;2.45;;
25069;SDS011;13064;48.162;11.536;2023-04-26T12:23:47;5.18;;;2.30;;
25069;SDS011;13064;48.162;11.536;2023-04-26T12:26:15;6.05;;;2.17;;
25069;SDS011;13064;48.162;11.536;2023-04-26T12:28:43;5.05;;;2.33;;
25069;SDS011;13064;48.162;11.536;2023-04-26T12:31:11;7.50;;;2.55;;
25069;SDS011;13064;48.162;11.536;2023-04-26T12:33:39;5.90;;;2.60;;
25069;SDS011;13064;48.162;11.536;2023-04-26T12:36:10;3.53;;;2.72;;
25069;SDS011;13064;48.162;11.536;2023-04-26T12:38:38;5.13;;;2.90;;
25069;SDS011;13064;48.162;11.536;2023-04-26T12:41:06;6.90;;;2.90;;
25069;SDS011;13064;48.162;11.536;2023-04-26T12:43:34;4.80;;;2.65;;
25069;SDS011;13064;48.162;11.536;2023-04-26T12:46:02;5.55;;;2.80;;
25069;SDS011;13064;48.162;11.536;2023-04-26T12:48:30;5.47;;;2.80;;
25069;SDS011;13064;48.162;11.536;2023-04-26T12:50:57;5.75;;;3.20;;
25069;SDS011;13064;48.162;11.536;2023-04-26T12:53:25;7.05;;;2.92;;
25069;SDS011;13064;48.162;11.536;2023-04-26T12:55:53;7.28;;;3.20;;
25069;SDS011;13064;48.162;11.536;2023-04-26T12:58:21;5.93;;;2.67;;
25069;SDS011;13064;48.162;11.536;2023-04-26T13:00:49;4.95;;;3.00;;
25069;SDS011;13064;48.162;11.536;2023-04-26T13:03:16;6.15;;;3.13;;
25069;SDS011;13064;48.162;11.536;2023-04-26T13:05:44;4.22;;;2.80;;
25069;SDS011;13064;48.162;11.536;2023-04-26T13:08:12;5.32;;;2.47;;
25069;SDS011;13064;48.162;11.536;2023-04-26T13:10:40;4.38;;;2.38;;
25069;SDS011;13064;48.162;11.536;2023-04-26T13:13:07;4.47;;;2.10;;
25069;SDS011;13064;48.162;11.536;2023-04-26T13:15:35;4.43;;;2.25;;
25069;SDS011;13064;48.162;11.536;2023-04-26T13:18:03;3.65;;;2.47;;
25069;SDS011;13064;48.162;11.536;2023-04-26T13:20:30;4.25;;;2.40;;
25069;SDS011;13064;48.162;11.536;2023-04-26T13:22:58;6.03;;;2.35;;
25069;SDS011;13064;48.162;11.536;2023-04-26T13:25:26;3.92;;;2.42;;
25069;SDS011;13064;48.162;11.536;2023-04-26T13:27:53;5.88;;;2.45;;
25069;SDS011;13064;48.162;11.536;2023-04-26T13:30:21;5.85;;;2.50;;
25069;SDS011;13064;48.162;11.536;2023-04-26T13:32:48;4.07;;;2.13;;
25069;SDS011;13064;48.162;11.536;2023-04-26T13:35:16;5.30;;;2.47;;
25069;SDS011;13064;48.162;11.536;2023-04-26T13:37:43;4.60;;;2.50;;
25069;SDS011;13064;48.162;11.536;2023-04-26T13:40:11;4.03;;;2.42;;
25069;SDS011;13064;48.162;11.536;2023-04-26T13:42:40;5.07;;;2.72;;
25069;SDS011;13064;48.162;11.536;2023-04-26T13:45:07;5.70;;;2.53;;
25069;SDS011;13064;48.162;11.536;2023-04-26T13:47:35;4.30;;;2.40;;
25069;SDS011;13064;48.162;11.536;2023-04-26T13:50:04;3.38;;;1.90;;
25069;SDS011;13064;48.162;11.536;2023-04-26T13:52:31;5.38;;;2.10;;
25069;SDS011;13064;48.162;11.536;2023-04-26T13:54:59;4.90;;;1.90;;
25069;SDS011;13064;48.162;11.536;2023-04-26T13:57:26;4.38;;;2.25;;
25069;SDS011;13064;48.162;11.536;2023-04-26T13:59:54;4.32;;;2.05;;
25069;SDS011;13064;48.162;11.536;2023-04-26T14:02:22;3.40;;;2.20;;
25069;SDS011;13064;48.162;11.536;2023-04-26T14:04:50;3.90;;;2.38;;
25069;SDS011;13064;48.162;11.536;2023-04-26T14:07:18;2.97;;;1.90;;
25069;SDS011;13064;48.162;11.536;2023-04-26T14:09:46;3.30;;;1.80;;
25069;SDS011;13064;48.162;11.536;2023-04-26T14:12:14;4.10;;;1.98;;
25069;SDS011;13064;48.162;11.536;2023-04-26T14:14:42;3.45;;;1.92;;
25069;SDS011;13064;48.162;11.536;2023-04-26T14:17:11;4.65;;;1.83;;
25069;SDS011;13064;48.162;11.536;2023-04-26T14:19:39;5.85;;;1.90;;
25069;SDS011;13064;48.162;11.536;2023-04-26T14:22:07;2.35;;;1.50;;
25069;SDS011;13064;48.162;11.536;2023-04-26T14:24:38;3.25;;;1.92;;
25069;SDS011;13064;48.162;11.536;2023-04-26T14:27:05;4.93;;;2.22;;
25069;SDS011;13064;48.162;11.536;2023-04-26T14:29:33;2.40;;;2.20;;
25069;SDS011;13064;48.162;11.536;2023-04-26T14:32:02;5.95;;;2.20;;
25069;SDS011;13064;48.162;11.536;2023-04-26T14:34:51;4.20;;;2.20;;
25069;SDS011;13064;48.162;11.536;2023-04-26T14:37:26;7.53;;;2.70;;
25069;SDS011;13064;48.162;11.536;2023-04-26T14:39:54;5.38;;;2.55;;
25069;SDS011;13064;48.162;11.536;2023-04-26T14:42:22;5.97;;;2.72;;
25069;SDS011;13064;48.162;11.536;2023-04-26T14:44:50;4.15;;;2.60;;
25069;SDS011;13064;48.162;11.536;2023-04-26T14:47:18;5.07;;;2.70;;
25069;SDS011;13064;48.162;11.536;2023-04-26T14:49:45;4.05;;;2.30;;
25069;SDS011;13064;48.162;11.536;2023-04-26T14:52:13;2.75;;;2.20;;
25069;SDS011;13064;48.162;11.536;2023-04-26T14:54:40;6.85;;;2.45;;
25069;SDS011;13064;48.162;11.536;2023-04-26T14:57:08;4.95;;;2.42;;
25069;SDS011;13064;48.162;11.536;2023-04-26T14:59:36;5.80;;;2.88;;